METAR Data
IDs: Format: Raw Decoded Include TAF

Data at: 2026 UTC 18 Apr 2021

ESNZ 182020Z AUTO 16005KT 9999 NCD 10/M08 Q1028